createdAt,value
2018-05-01T00:01:26.941Z,18.27
2018-05-01T00:03:53.161Z,17.37
2018-05-01T00:06:19.340Z,17.80
2018-05-01T00:08:46.510Z,19.73
2018-05-01T00:11:13.453Z,20.97
2018-05-01T00:13:40.374Z,19.63
2018-05-01T00:16:06.566Z,18.07
2018-05-01T00:18:32.750Z,19.33
2018-05-01T00:20:58.948Z,18.13
2018-05-01T00:23:25.142Z,16.63
2018-05-01T00:25:52.078Z,16.90
2018-05-01T00:28:19.026Z,17.20
2018-05-01T00:30:45.966Z,16.50
2018-05-01T00:33:12.206Z,17.10
2018-05-01T00:35:39.147Z,17.90
2018-05-01T00:38:05.342Z,16.47
2018-05-01T00:40:31.529Z,17.10
2018-05-01T00:42:58.466Z,16.07
2018-05-01T00:45:24.687Z,16.10
2018-05-01T00:47:50.870Z,15.17
2018-05-01T00:50:17.051Z,15.93
2018-05-01T00:52:43.247Z,16.30
2018-05-01T00:55:09.446Z,16.47
2018-05-01T00:57:36.410Z,15.60
2018-05-01T01:00:02.603Z,15.83
2018-05-01T01:02:28.785Z,16.43
2018-05-01T01:04:54.977Z,17.53
2018-05-01T01:07:21.175Z,17.60
2018-05-01T01:09:47.394Z,16.23
2018-05-01T01:12:13.584Z,17.90
2018-05-01T01:14:40.530Z,18.23
2018-05-01T01:17:07.457Z,17.17
2018-05-01T01:19:33.701Z,16.50
2018-05-01T01:21:59.917Z,15.63
2018-05-01T01:24:26.098Z,15.77
2018-05-01T01:26:53.026Z,15.40
2018-05-01T01:29:19.218Z,14.67
2018-05-01T01:31:45.384Z,14.87
2018-05-01T01:34:11.669Z,16.60
2018-05-01T01:36:37.663Z,16.63
2018-05-01T01:39:04.413Z,15.87
2018-05-01T01:41:31.179Z,15.07
2018-05-01T01:43:57.198Z,15.00
2018-05-01T01:46:23.967Z,15.27
2018-05-01T01:48:49.989Z,16.03
2018-05-01T01:51:15.994Z,16.80
2018-05-01T01:53:42.754Z,15.10
2018-05-01T01:56:08.758Z,15.07
2018-05-01T01:58:35.518Z,15.40
2018-05-01T02:01:02.288Z,15.53
2018-05-01T02:03:28.301Z,17.03
2018-05-01T02:05:54.318Z,17.37
2018-05-01T02:08:21.094Z,15.77
2018-05-01T02:10:47.110Z,17.37
2018-05-01T02:13:13.121Z,16.63
2018-05-01T02:15:40.069Z,16.70
2018-05-01T02:18:06.841Z,18.37
2018-05-01T02:20:32.846Z,16.30
2018-05-01T02:22:59.614Z,17.07
2018-05-01T02:25:25.624Z,17.70
2018-05-01T02:27:52.366Z,17.77
2018-05-01T02:30:19.125Z,17.87
2018-05-01T02:32:45.121Z,17.40
2018-05-01T02:35:11.159Z,17.80
2018-05-01T02:37:37.914Z,17.10
2018-05-01T02:40:04.656Z,17.67
2018-05-01T02:42:31.431Z,17.83
2018-05-01T02:44:57.438Z,17.47
2018-05-01T02:47:24.202Z,17.80
2018-05-01T02:49:50.222Z,17.23
2018-05-01T02:52:16.238Z,16.17
2018-05-01T02:54:43.010Z,16.77
2018-05-01T02:57:09.014Z,16.80
2018-05-01T02:59:35.801Z,18.57
2018-05-01T03:02:01.810Z,18.40
2018-05-01T03:04:27.826Z,18.50
2018-05-01T03:06:53.854Z,16.63
2018-05-01T03:09:19.852Z,17.03
2018-05-01T03:11:45.894Z,18.87
2018-05-01T03:14:12.650Z,19.10
2018-05-01T03:16:39.401Z,18.13
2018-05-01T03:19:05.434Z,17.37
2018-05-01T03:21:31.433Z,18.37
2018-05-01T03:23:57.479Z,17.23
2018-05-01T03:26:24.222Z,18.80
2018-05-01T03:28:50.965Z,18.87
2018-05-01T03:31:17.722Z,18.93
2018-05-01T03:33:44.477Z,19.07
2018-05-01T03:36:10.791Z,18.77
2018-05-01T03:38:37.531Z,18.37
2018-05-01T03:41:03.537Z,20.50
2018-05-01T03:43:29.626Z,20.27
2018-05-01T03:45:55.623Z,19.90
2018-05-01T03:48:21.663Z,20.33
2018-05-01T03:50:48.425Z,20.40
2018-05-01T03:53:14.424Z,21.73
2018-05-01T03:55:41.177Z,19.77
2018-05-01T03:58:07.913Z,21.27
2018-05-01T04:00:33.934Z,20.70
2018-05-01T04:02:59.935Z,19.10
2018-05-01T04:05:25.938Z,18.63
2018-05-01T04:07:51.986Z,18.60
2018-05-01T04:10:17.985Z,18.60
2018-05-01T04:12:44.018Z,17.77
2018-05-01T04:15:10.023Z,18.00
2018-05-01T04:17:36.772Z,19.00
2018-05-01T04:20:02.814Z,19.07
2018-05-01T04:22:29.579Z,18.17
2018-05-01T04:24:55.612Z,18.37
2018-05-01T04:27:21.617Z,20.33
2018-05-01T04:29:48.365Z,19.27
2018-05-01T04:32:14.387Z,19.17
2018-05-01T04:34:41.131Z,18.53
2018-05-01T04:37:07.981Z,19.37
2018-05-01T04:39:34.014Z,18.90
2018-05-01T04:42:00.752Z,18.17
2018-05-01T04:44:27.688Z,18.73
2018-05-01T04:46:53.721Z,19.10
2018-05-01T04:49:20.493Z,19.13
2018-05-01T04:51:46.531Z,18.80
2018-05-01T04:54:12.541Z,20.13
2018-05-01T04:56:39.302Z,18.43
2018-05-01T04:59:05.306Z,17.90
2018-05-01T05:01:32.078Z,18.37
2018-05-01T05:03:58.081Z,16.50
2018-05-01T05:06:24.825Z,15.43
2018-05-01T05:08:51.586Z,16.23
2018-05-01T05:11:17.585Z,16.27
2018-05-01T05:13:43.645Z,16.90
2018-05-01T05:16:09.654Z,17.17
2018-05-01T05:18:36.398Z,18.17
2018-05-01T05:21:03.162Z,17.50
2018-05-01T05:23:29.896Z,17.07
2018-05-01T05:25:56.700Z,17.00
2018-05-01T05:28:22.714Z,17.60
2018-05-01T05:30:48.725Z,18.20
2018-05-01T05:33:14.738Z,17.43
2018-05-01T05:35:41.483Z,17.10
2018-05-01T05:38:08.515Z,16.30
2018-05-01T05:40:34.644Z,17.33
2018-05-01T05:43:00.705Z,18.23
2018-05-01T05:45:26.786Z,18.77
2018-05-01T05:47:52.793Z,18.57
2018-05-01T05:50:18.830Z,18.73
2018-05-01T05:52:44.825Z,18.20
2018-05-01T05:55:10.850Z,19.03
2018-05-01T05:57:36.869Z,18.80
2018-05-01T06:00:03.639Z,16.93
2018-05-01T06:02:29.669Z,17.50
2018-05-01T06:04:55.661Z,16.93
2018-05-01T06:07:22.409Z,16.50
2018-05-01T06:09:49.169Z,15.20
2018-05-01T06:12:15.267Z,16.00
2018-05-01T06:14:41.293Z,15.53
2018-05-01T06:17:07.305Z,15.93
2018-05-01T06:19:34.259Z,15.53
2018-05-01T06:22:00.384Z,17.37
2018-05-01T06:24:26.309Z,16.30
2018-05-01T06:26:52.341Z,15.57
2018-05-01T06:29:18.348Z,15.73
2018-05-01T06:31:44.361Z,14.93
2018-05-01T06:34:10.378Z,16.27
2018-05-01T06:36:36.389Z,16.97
2018-05-01T06:39:03.198Z,18.10
2018-05-01T06:41:29.205Z,17.13
2018-05-01T06:43:55.225Z,16.53
2018-05-01T06:46:21.259Z,14.77
2018-05-01T06:48:47.270Z,15.37
2018-05-01T06:51:13.296Z,15.27
2018-05-01T06:53:40.059Z,14.73
2018-05-01T06:56:06.090Z,13.97
2018-05-01T06:58:32.113Z,15.23
2018-05-01T07:00:58.116Z,13.83
2018-05-01T07:03:24.891Z,13.47
2018-05-01T07:05:50.898Z,13.57
2018-05-01T07:08:17.646Z,13.83
2018-05-01T07:10:44.402Z,11.67
2018-05-01T07:13:10.412Z,12.13
2018-05-01T07:15:37.189Z,11.90
2018-05-01T07:18:03.206Z,11.17
2018-05-01T07:20:29.218Z,12.23
2018-05-01T07:22:55.990Z,10.00
2018-05-01T07:25:22.738Z,9.30
2018-05-01T07:27:48.773Z,9.37
2018-05-01T07:30:14.868Z,8.70
2018-05-01T07:32:40.830Z,7.97
2018-05-01T07:35:06.848Z,7.93
2018-05-01T07:37:32.862Z,8.27
2018-05-01T07:39:58.923Z,8.07
2018-05-01T07:42:24.936Z,7.53
2018-05-01T07:44:50.951Z,7.33
2018-05-01T07:47:16.991Z,7.10
2018-05-01T07:49:42.993Z,6.57
2018-05-01T07:52:09.733Z,6.27
2018-05-01T07:54:35.773Z,5.80
2018-05-01T07:57:02.520Z,5.70
2018-05-01T07:59:29.271Z,5.50
2018-05-01T08:01:56.045Z,4.80
2018-05-01T08:04:22.063Z,4.90
2018-05-01T08:06:48.093Z,3.93
2018-05-01T08:09:14.126Z,4.40
2018-05-01T08:11:40.130Z,4.30
2018-05-01T08:14:06.869Z,3.63
2018-05-01T08:16:33.621Z,4.17
2018-05-01T08:18:59.634Z,3.43
2018-05-01T08:21:26.439Z,3.17
2018-05-01T08:23:52.457Z,3.67
2018-05-01T08:26:18.444Z,3.70
2018-05-01T08:28:45.220Z,2.73
2018-05-01T08:31:11.238Z,2.87
2018-05-01T08:33:37.305Z,3.10
2018-05-01T08:36:03.334Z,2.47
2018-05-01T08:38:29.355Z,2.20
2018-05-01T08:40:55.474Z,2.00
2018-05-01T08:43:21.507Z,1.90
2018-05-01T08:45:47.558Z,2.00
2018-05-01T08:48:13.643Z,1.77
2018-05-01T08:50:39.662Z,1.90
2018-05-01T08:53:06.426Z,1.60
2018-05-01T08:55:32.429Z,2.00
2018-05-01T08:57:59.214Z,1.90
2018-05-01T09:00:25.221Z,2.03
2018-05-01T09:02:51.235Z,1.93
2018-05-01T09:05:17.261Z,2.73
2018-05-01T09:07:43.261Z,1.63
2018-05-01T09:10:09.330Z,2.40
2018-05-01T09:12:36.077Z,1.77
2018-05-01T09:15:02.823Z,1.80
2018-05-01T09:17:29.585Z,1.57
2018-05-01T09:19:55.611Z,1.40
2018-05-01T09:22:21.642Z,1.60
2018-05-01T09:24:47.662Z,1.17
2018-05-01T09:27:13.674Z,1.20
2018-05-01T09:29:40.429Z,1.20
2018-05-01T09:32:07.177Z,1.13
2018-05-01T09:34:33.955Z,1.10
2018-05-01T09:36:59.985Z,1.10
2018-05-01T09:39:25.995Z,0.90
2018-05-01T09:41:52.210Z,1.30
2018-05-01T09:44:18.195Z,1.17
2018-05-01T09:46:44.238Z,1.20
2018-05-01T09:49:10.313Z,1.40
2018-05-01T09:51:37.062Z,1.17
2018-05-01T09:54:04.022Z,1.10
2018-05-01T09:56:30.200Z,1.10
2018-05-01T10:01:37.019Z,1.10
2018-05-01T10:04:03.984Z,1.10
2018-05-01T10:06:30.179Z,1.20
2018-05-01T10:08:56.374Z,1.10
2018-05-01T10:11:22.590Z,1.10
2018-05-01T10:13:48.784Z,0.90
2018-05-01T10:16:15.002Z,0.90
2018-05-01T10:18:41.190Z,1.03
2018-05-01T10:21:07.382Z,0.90
2018-05-01T10:23:33.586Z,0.93
2018-05-01T10:25:59.796Z,1.10
2018-05-01T10:28:26.040Z,0.97
2018-05-01T10:30:52.217Z,1.10
2018-05-01T10:33:18.422Z,1.07
2018-05-01T10:35:44.631Z,1.10
2018-05-01T10:38:10.809Z,0.77
2018-05-01T10:40:37.023Z,0.90
2018-05-01T10:43:03.238Z,1.00
2018-05-01T10:45:29.413Z,0.93
2018-05-01T10:47:56.349Z,1.00
2018-05-01T10:50:22.541Z,1.00
2018-05-01T10:52:48.757Z,1.00
2018-05-01T10:55:15.682Z,1.07
2018-05-01T10:57:42.607Z,1.00
2018-05-01T11:00:08.827Z,1.10
2018-05-01T11:02:35.014Z,1.20
2018-05-01T11:05:01.985Z,1.10
2018-05-01T11:07:28.174Z,0.90
2018-05-01T11:09:54.353Z,1.20
2018-05-01T11:12:20.541Z,1.20
2018-05-01T11:14:46.733Z,1.23
2018-05-01T11:17:12.945Z,1.20
2018-05-01T11:19:39.114Z,1.00
2018-05-01T11:22:05.307Z,1.40
2018-05-01T11:24:31.598Z,1.23
2018-05-01T11:26:58.453Z,1.17
2018-05-01T11:29:24.684Z,1.10
2018-05-01T11:31:50.857Z,1.20
2018-05-01T11:34:17.051Z,1.10
2018-05-01T11:36:43.234Z,1.10
2018-05-01T11:39:09.420Z,1.33
2018-05-01T11:41:35.654Z,1.37
2018-05-01T11:44:03.361Z,1.30
2018-05-01T11:46:29.598Z,1.10
2018-05-01T11:48:56.508Z,1.00
2018-05-01T11:51:22.697Z,0.80
2018-05-01T11:53:48.969Z,0.90
2018-05-01T11:56:15.110Z,0.60
2018-05-01T11:58:41.293Z,0.50
2018-05-01T12:01:07.507Z,0.50
2018-05-01T12:03:33.709Z,0.60
2018-05-01T12:05:59.909Z,0.50
2018-05-01T12:08:26.098Z,0.30
2018-05-01T12:10:52.307Z,0.40
2018-05-01T12:13:18.537Z,0.40
2018-05-01T12:15:44.740Z,0.30
2018-05-01T12:18:10.945Z,0.47
2018-05-01T12:20:37.129Z,0.40
2018-05-01T12:23:03.314Z,0.30
2018-05-01T12:25:29.521Z,0.40
2018-05-01T12:27:56.458Z,0.20
2018-05-01T12:30:22.682Z,0.10
2018-05-01T12:32:48.883Z,0.40
2018-05-01T12:35:15.062Z,0.30
2018-05-01T12:37:42.013Z,0.27
2018-05-01T12:40:08.945Z,0.30
2018-05-01T12:42:35.348Z,0.40
2018-05-01T12:45:01.558Z,0.27
2018-05-01T12:47:27.733Z,0.30
2018-05-01T12:49:54.059Z,0.23
2018-05-01T12:52:20.250Z,0.40
2018-05-01T12:54:47.181Z,0.20
2018-05-01T12:57:14.117Z,0.40
2018-05-01T12:59:40.299Z,0.30
2018-05-01T13:02:06.505Z,0.23
2018-05-01T13:04:33.445Z,0.30
2018-05-01T13:06:59.629Z,0.40
2018-05-01T13:09:25.825Z,0.37
2018-05-01T13:11:52.750Z,0.20
2018-05-01T13:14:18.958Z,0.40
2018-05-01T13:16:45.166Z,0.40
2018-05-01T13:19:11.358Z,0.47
2018-05-01T13:21:37.554Z,0.50
2018-05-01T13:24:03.763Z,0.40
2018-05-01T13:26:29.946Z,0.40
2018-05-01T13:28:56.121Z,0.43
2018-05-01T13:31:22.378Z,0.50
2018-05-01T13:33:48.559Z,0.50
2018-05-01T13:36:15.514Z,0.50
2018-05-01T13:38:42.465Z,0.40
2018-05-01T13:41:09.426Z,0.50
2018-05-01T13:43:36.651Z,0.40
2018-05-01T13:46:02.843Z,0.50
2018-05-01T13:48:29.026Z,0.50
2018-05-01T13:50:55.314Z,0.50
2018-05-01T13:53:21.506Z,0.60
2018-05-01T13:55:48.470Z,0.50
2018-05-01T13:58:14.677Z,0.50
2018-05-01T14:00:40.927Z,0.70
2018-05-01T14:03:07.076Z,0.60
2018-05-01T14:05:33.272Z,0.90
2018-05-01T14:07:59.481Z,0.70
2018-05-01T14:10:25.657Z,0.90
2018-05-01T14:12:52.585Z,0.90
2018-05-01T14:15:18.810Z,1.00
2018-05-01T14:17:45.265Z,1.00
2018-05-01T14:20:11.491Z,1.00
2018-05-01T14:22:37.683Z,1.10
2018-05-01T14:25:03.870Z,1.00
2018-05-01T14:27:30.067Z,0.97
2018-05-01T14:29:56.270Z,1.10
2018-05-01T14:32:22.509Z,0.97
2018-05-01T14:34:48.690Z,1.00
2018-05-01T14:37:14.882Z,1.20
2018-05-01T14:39:41.077Z,1.00
2018-05-01T14:42:08.015Z,0.80
2018-05-01T14:44:34.971Z,0.90
2018-05-01T14:47:01.905Z,0.90
2018-05-01T14:49:28.118Z,1.03
2018-05-01T14:51:54.357Z,1.20
2018-05-01T14:54:20.537Z,0.93
2018-05-01T14:56:47.475Z,1.00
2018-05-01T14:59:14.434Z,0.70
2018-05-01T15:01:41.428Z,0.83
2018-05-01T15:04:07.597Z,1.10
2018-05-01T15:06:33.801Z,1.00
2018-05-01T15:09:00.043Z,1.00
2018-05-01T15:11:26.209Z,1.20
2018-05-01T15:13:53.125Z,1.30
2018-05-01T15:16:19.292Z,1.20
2018-05-01T15:18:46.239Z,1.10
2018-05-01T15:21:13.167Z,1.10
2018-05-01T15:23:39.385Z,1.30
2018-05-01T15:26:05.590Z,1.40
2018-05-01T15:28:31.773Z,1.10
2018-05-01T15:30:58.717Z,1.30
2018-05-01T15:33:24.896Z,1.17
2018-05-01T15:35:51.072Z,1.30
2018-05-01T15:38:17.245Z,1.43
2018-05-01T15:40:44.318Z,1.30
2018-05-01T15:43:10.525Z,1.60
2018-05-01T15:45:37.442Z,1.57
2018-05-01T15:48:03.662Z,1.60
2018-05-01T15:50:29.836Z,1.67
2018-05-01T15:52:56.789Z,1.47
2018-05-01T15:55:23.707Z,1.70
2018-05-01T15:57:49.898Z,1.70
2018-05-01T16:00:16.093Z,1.70
2018-05-01T16:02:42.289Z,1.70
2018-05-01T16:05:08.509Z,1.60
2018-05-01T16:07:34.684Z,1.70
2018-05-01T16:10:00.917Z,1.80
2018-05-01T16:12:27.096Z,1.97
2018-05-01T16:14:53.281Z,1.87
2018-05-01T16:17:19.514Z,2.00
2018-05-01T16:19:45.694Z,2.13
2018-05-01T16:22:11.873Z,2.40
2018-05-01T16:24:38.082Z,2.40
2018-05-01T16:27:04.297Z,2.27
2018-05-01T16:29:30.513Z,2.20
2018-05-01T16:31:56.693Z,2.40
2018-05-01T16:34:22.869Z,3.17
2018-05-01T16:36:49.795Z,2.70
2018-05-01T16:39:15.982Z,2.43
2018-05-01T16:41:42.157Z,2.40
2018-05-01T16:44:08.370Z,2.87
2018-05-01T16:46:34.553Z,2.30
2018-05-01T16:49:01.472Z,2.50
2018-05-01T16:51:28.018Z,2.50
2018-05-01T16:53:54.537Z,2.80
2018-05-01T16:56:20.774Z,2.47
2018-05-01T16:58:47.023Z,2.20
2018-05-01T17:01:14.697Z,2.40
2018-05-01T17:03:41.662Z,2.33
2018-05-01T17:06:08.598Z,2.27
2018-05-01T17:08:35.542Z,2.47
2018-05-01T17:11:01.737Z,2.50
2018-05-01T17:13:27.913Z,2.93
2018-05-01T17:15:54.139Z,2.63
2018-05-01T17:18:20.321Z,2.73
2018-05-01T17:20:46.518Z,3.00
2018-05-01T17:23:13.458Z,2.93
2018-05-01T17:25:39.662Z,3.07
2018-05-01T17:28:05.883Z,3.50
2018-05-01T17:30:32.043Z,3.40
2018-05-01T17:32:58.258Z,3.70
2018-05-01T17:35:24.441Z,3.63
2018-05-01T17:37:51.398Z,3.07
2018-05-01T17:40:18.322Z,3.87
2018-05-01T17:42:44.505Z,3.80
2018-05-01T17:45:10.722Z,4.43
2018-05-01T17:47:36.913Z,4.17
2018-05-01T17:50:03.095Z,4.13
2018-05-01T17:52:29.285Z,4.30
2018-05-01T17:54:55.488Z,3.93
2018-05-01T17:57:21.889Z,4.00
2018-05-01T17:59:48.064Z,4.17
2018-05-01T18:02:14.246Z,4.07
2018-05-01T18:04:41.183Z,4.30
2018-05-01T18:07:08.105Z,3.70
2018-05-01T18:09:34.290Z,3.83
2018-05-01T18:12:00.457Z,4.20
2018-05-01T18:14:26.731Z,4.50
2018-05-01T18:16:52.905Z,4.53
2018-05-01T18:19:19.086Z,4.90
2018-05-01T18:21:45.289Z,4.83
2018-05-01T18:24:11.474Z,4.40
2018-05-01T18:26:38.431Z,4.97
2018-05-01T18:29:04.642Z,5.00
2018-05-01T18:31:31.607Z,4.87
2018-05-01T18:33:58.523Z,4.80
2018-05-01T18:36:24.754Z,4.80
2018-05-01T18:38:50.949Z,4.80
2018-05-01T18:41:17.134Z,4.70
2018-05-01T18:43:43.365Z,5.00
2018-05-01T18:46:09.550Z,4.83
2018-05-01T18:48:35.879Z,5.03
2018-05-01T18:51:02.322Z,4.80
2018-05-01T18:53:28.510Z,4.73
2018-05-01T18:55:54.820Z,4.93
2018-05-01T18:58:21.210Z,5.23
2018-05-01T19:00:47.405Z,4.33
2018-05-01T19:03:13.656Z,4.77
2018-05-01T19:05:39.849Z,5.30
2018-05-01T19:08:06.012Z,5.10
2018-05-01T19:10:32.476Z,5.23
2018-05-01T19:12:58.573Z,5.63
2018-05-01T19:15:24.849Z,5.13
2018-05-01T19:17:51.178Z,5.73
2018-05-01T19:20:17.381Z,6.40
2018-05-01T19:22:43.561Z,6.43
2018-05-01T19:25:09.874Z,6.57
2018-05-01T19:27:36.799Z,6.00
2018-05-01T19:30:03.161Z,5.43
2018-05-01T19:32:30.091Z,5.40
2018-05-01T19:34:56.289Z,5.23
2018-05-01T19:37:22.672Z,5.00
2018-05-01T19:39:49.601Z,4.80
2018-05-01T19:42:15.984Z,5.07
2018-05-01T19:44:42.173Z,5.57
2018-05-01T19:47:08.358Z,5.63
2018-05-01T19:49:34.583Z,5.47
2018-05-01T19:52:00.806Z,5.03
2018-05-01T19:54:27.794Z,5.53
2018-05-01T19:56:53.993Z,6.20
2018-05-01T19:59:20.935Z,6.17
2018-05-01T20:01:47.886Z,6.73
2018-05-01T20:04:14.806Z,6.07
2018-05-01T20:06:41.030Z,6.00
2018-05-01T20:09:07.224Z,6.63
2018-05-01T20:11:33.437Z,6.63
2018-05-01T20:14:00.361Z,7.13
2018-05-01T20:16:26.583Z,7.37
2018-05-01T20:18:52.764Z,7.27
2018-05-01T20:21:18.959Z,6.67
2018-05-01T20:23:45.173Z,7.00
2018-05-01T20:26:11.369Z,7.70
2018-05-01T20:28:37.590Z,7.40
2018-05-01T20:31:03.797Z,7.47
2018-05-01T20:33:30.002Z,7.17
2018-05-01T20:35:56.230Z,6.23
2018-05-01T20:38:23.164Z,7.10
2018-05-01T20:40:49.358Z,6.70
2018-05-01T20:43:16.287Z,7.20
2018-05-01T20:45:42.462Z,8.10
2018-05-01T20:48:08.703Z,8.63
2018-05-01T20:50:34.910Z,8.30
2018-05-01T20:53:01.846Z,7.63
2018-05-01T20:55:28.032Z,7.87
2018-05-01T20:57:54.223Z,8.37
2018-05-01T21:00:21.183Z,7.67
2018-05-01T21:02:47.366Z,8.17
2018-05-01T21:05:13.549Z,6.47
2018-05-01T21:07:39.750Z,6.50
2018-05-01T21:10:05.957Z,6.67
2018-05-01T21:12:32.166Z,6.10
2018-05-01T21:14:58.425Z,6.07
2018-05-01T21:17:24.612Z,4.80
2018-05-01T21:19:51.567Z,4.90
2018-05-01T21:22:17.917Z,4.93
2018-05-01T21:24:44.743Z,5.20
2018-05-01T21:27:11.916Z,5.33
2018-05-01T21:29:38.102Z,5.30
2018-05-01T21:32:04.309Z,4.73
2018-05-01T21:34:30.572Z,4.73
2018-05-01T21:36:56.746Z,5.17
2018-05-01T21:39:22.934Z,5.10
2018-05-01T21:41:49.122Z,4.73
2018-05-01T21:44:15.322Z,4.67
2018-05-01T21:46:42.234Z,5.33
2018-05-01T21:49:08.434Z,5.27
2018-05-01T21:51:34.642Z,5.37
2018-05-01T21:54:01.583Z,5.87
2018-05-01T21:56:27.782Z,5.50
2018-05-01T21:58:54.002Z,6.33
2018-05-01T22:01:20.182Z,6.83
2018-05-01T22:03:47.131Z,6.80
2018-05-01T22:06:14.113Z,7.03
2018-05-01T22:08:40.301Z,7.17
2018-05-01T22:11:06.522Z,6.77
2018-05-01T22:13:32.706Z,7.43
2018-05-01T22:15:58.879Z,8.57
2018-05-01T22:18:25.070Z,8.67
2018-05-01T22:20:51.246Z,7.23
2018-05-01T22:23:17.467Z,6.93
2018-05-01T22:25:43.645Z,7.10
2018-05-01T22:28:10.565Z,7.37
2018-05-01T22:30:36.765Z,7.57
2018-05-01T22:33:02.987Z,7.00
2018-05-01T22:35:29.201Z,6.93
2018-05-01T22:37:56.122Z,7.43
2018-05-01T22:40:22.322Z,6.93
2018-05-01T22:42:48.516Z,6.53
2018-05-01T22:45:15.424Z,6.87
2018-05-01T22:47:41.657Z,6.60
2018-05-01T22:50:07.829Z,6.93
2018-05-01T22:52:35.000Z,7.00
2018-05-01T22:55:01.209Z,7.27
2018-05-01T22:57:28.140Z,6.97
2018-05-01T22:59:54.382Z,6.93
2018-05-01T23:02:20.586Z,7.57
2018-05-01T23:04:46.766Z,7.20
2018-05-01T23:07:13.718Z,7.17
2018-05-01T23:09:40.649Z,7.17
2018-05-01T23:12:06.847Z,7.33
2018-05-01T23:14:33.037Z,7.33
2018-05-01T23:16:59.967Z,7.10
2018-05-01T23:19:26.175Z,8.00
2018-05-01T23:21:52.375Z,7.70
2018-05-01T23:24:18.562Z,8.17
2018-05-01T23:26:44.764Z,8.67
2018-05-01T23:29:10.942Z,9.17
2018-05-01T23:31:37.918Z,9.10
2018-05-01T23:34:04.106Z,9.27
2018-05-01T23:36:30.302Z,9.33
2018-05-01T23:38:56.494Z,9.20
2018-05-01T23:41:23.466Z,8.50
2018-05-01T23:43:49.665Z,9.47
2018-05-01T23:46:15.845Z,8.93
2018-05-01T23:48:42.030Z,9.80
2018-05-01T23:51:08.231Z,10.47
2018-05-01T23:53:34.651Z,10.43
2018-05-01T23:56:00.866Z,10.50
2018-05-01T23:58:27.034Z,10.47
